Time;durP1;ratioP1;P1;durP2;ratioP2;P2;SDS_P1;SDS_P2;PMS_P1;PMS_P2;Temp;Humidity;BMP_temperature;BMP_pressure;BME280_temperature;BME280_humidity;BME280_pressure;Samples;Min_cycle;Max_cycle;Signal;HPM_P1;HPM_P2
2022/03/02 00:00:23;;;;;;;;;;;;;;;;;;1045789;28;3818;-74
2022/03/02 00:01:12;;;;;;;;;;;;;;;;;;1044817;28;4139;-74
2022/03/02 00:01:42;;;;;;;;;;;;;;;;;;1045946;28;2812;-74
2022/03/02 00:02:12;;;;;;;;;;;;;;;;;;1046282;28;4073;-74
2022/03/02 00:02:43;;;;;;;;;;;;;;;;;;1046047;28;2252;-74
2022/03/02 00:03:26;;;;;;;;;;;;;;;;;;1044099;28;3858;-74
2022/03/02 00:04:04;;;;;;;;;;;;;;;;;;1044653;28;3622;-73
2022/03/02 00:04:34;;;;;;;;;;;;;;;;;;1045385;28;3925;-74
2022/03/02 00:05:05;;;;;;;;;;;;;;;;;;1046396;28;2758;-74
2022/03/02 00:05:36;;;;;;;;;;;;;;;;;;1050084;28;4016;-73
2022/03/02 00:06:06;;;;;;;;;;;;;;;;;;1045139;28;3846;-74
2022/03/02 00:06:37;;;;;;;;;;;;;;;;;;1045803;28;3111;-75
2022/03/02 00:07:07;;;;;;;;;;;;;;;;;;1045241;28;3987;-75
2022/03/02 00:07:37;;;;;;;;;;;;;;;;;;1045387;28;2523;-75
2022/03/02 00:08:07;;;;;;;;;;;;;;;;;;1045350;28;3796;-75
2022/03/02 00:08:38;;;;;;;;;;;;;;;;;;1050459;28;2791;-74
2022/03/02 00:09:08;;;;;;;;;;;;;;;;;;1050067;28;3818;-75
2022/03/02 00:09:38;;;;;;;;;;;;;;;;;;1049447;28;3310;-75
2022/03/02 00:10:09;;;;;;;;;;;;;;;;;;1045352;28;3836;-74
2022/03/02 00:10:39;;;;;;;;;;;;;;;;;;1049596;28;2288;-74
2022/03/02 00:11:11;;;;;;;;;;;;;;;;;;1049813;28;3897;-75
2022/03/02 00:11:41;;;;;;;;;;;;;;;;;;1050440;28;2496;-74
2022/03/02 00:12:12;;;;;;;;;;;;;;;;;;1053884;28;3812;-74
2022/03/02 00:12:42;;;;;;;;;;;;;;;;;;1050374;28;2291;-74
2022/03/02 00:13:13;;;;;;;;;;;;;;;;;;1049367;28;3808;-74
2022/03/02 00:13:44;;;;;;;;;;;;;;;;;;1050705;28;1723;-74
2022/03/02 00:14:14;;;;;;;;;;;;;;;;;;1050192;28;3993;-75
2022/03/02 00:14:44;;;;;;;;;;;;;;;;;;1050279;28;2769;-74
2022/03/02 00:15:15;;;;;;;;;;;;;;;;;;1049247;28;3955;-74
2022/03/02 00:15:45;;;;;;;;;;;;;;;;;;1050053;28;2636;-74
2022/03/02 00:16:17;;;;;;;;;;;;;;;;;;1050326;28;3800;-73
2022/03/02 00:16:47;;;;;;;;;;;;;;;;;;1049215;28;2810;-75
2022/03/02 00:17:17;;;;;;;;;;;;;;;;;;1050336;28;3862;-74
2022/03/02 00:17:47;;;;;;;;;;;;;;;;;;1045910;28;3297;-74
2022/03/02 00:18:18;;;;;;;;;;;;;;;;;;1045544;28;3966;-75
2022/03/02 00:18:48;;;;;;;;;;;;;;;;;;1044840;28;2820;-74
2022/03/02 00:19:19;;;;;;;;;;;;;;;;;;1046292;28;4062;-75
2022/03/02 00:19:49;;;;;;;;;;;;;;;;;;1049812;28;2873;-74
2022/03/02 00:20:19;;;;;;;;;;;;;;;;;;1045596;28;3912;-75
2022/03/02 00:20:50;;;;;;;;;;;;;;;;;;1045781;28;2085;-75
2022/03/02 00:21:20;;;;;;;;;;;;;;;;;;1040018;28;4004;-75
2022/03/02 00:21:50;;;;;;;;;;;;;;;;;;1039895;28;2550;-75
2022/03/02 00:22:20;;;;;;;;;;;;;;;;;;1045284;28;3975;-74
2022/03/02 00:22:52;;;;;;;;;;;;;;;;;;1044560;28;2395;-73
2022/03/02 00:23:23;;;;;;;;;;;;;;;;;;1049209;28;3952;-74
2022/03/02 00:23:53;;;;;;;;;;;;;;;;;;1050561;28;2459;-75
2022/03/02 00:24:23;;;;;;;;;;;;;;;;;;1045649;28;3844;-74
2022/03/02 00:24:53;;;;;;;;;;;;;;;;;;1044868;28;2811;-74
2022/03/02 00:25:24;;;;;;;;;;;;;;;;;;1045329;28;3807;-74
2022/03/02 00:25:54;;;;;;;;;;;;;;;;;;1046413;28;1941;-74
2022/03/02 00:26:24;;;;;;;;;;;;;;;;;;1049618;28;4003;-75
2022/03/02 00:27:01;;;;;;;;;;;;;;;;;;1050351;28;2595;-74
2022/03/02 00:27:31;;;;;;;;;;;;;;;;;;1049882;28;3759;-74
2022/03/02 00:28:01;;;;;;;;;;;;;;;;;;1049156;28;2601;-75
2022/03/02 00:28:32;;;;;;;;;;;;;;;;;;1050661;28;3790;-75
2022/03/02 00:29:02;;;;;;;;;;;;;;;;;;1044656;28;2754;-75
2022/03/02 00:29:32;;;;;;;;;;;;;;;;;;1046048;28;3982;-74
2022/03/02 00:30:04;;;;;;;;;;;;;;;;;;1045341;28;3440;-75
2022/03/02 00:30:35;;;;;;;;;;;;;;;;;;1045860;28;3676;-74
2022/03/02 00:31:05;;;;;;;;;;;;;;;;;;1049631;28;3852;-74
2022/03/02 00:31:35;;;;;;;;;;;;;;;;;;1049412;28;3722;-74
2022/03/02 00:32:05;;;;;;;;;;;;;;;;;;1045915;28;3892;-74
2022/03/02 00:32:36;;;;;;;;;;;;;;;;;;1045760;28;2902;-74
2022/03/02 00:33:07;;;;;;;;;;;;;;;;;;1045707;28;3810;-75
2022/03/02 00:33:38;;;;;;;;;;;;;;;;;;1046357;28;1990;-74
2022/03/02 00:34:08;;;;;;;;;;;;;;;;;;1048677;28;4011;-74
2022/03/02 00:34:38;;;;;;;;;;;;;;;;;;1050449;28;2096;-74
2022/03/02 00:35:08;;;;;;;;;;;;;;;;;;1050433;28;3909;-74
2022/03/02 00:35:39;;;;;;;;;;;;;;;;;;1050657;28;2401;-74
2022/03/02 00:36:09;;;;;;;;;;;;;;;;;;1045632;28;3994;-74
2022/03/02 00:36:39;;;;;;;;;;;;;;;;;;1045348;28;2734;-75
2022/03/02 00:37:10;;;;;;;;;;;;;;;;;;1040327;28;3888;-74
2022/03/02 00:37:40;;;;;;;;;;;;;;;;;;1037467;28;2188;-75
2022/03/02 00:38:11;;;;;;;;;;;;;;;;;;1040954;28;3997;-74
2022/03/02 00:38:41;;;;;;;;;;;;;;;;;;1042097;28;2697;-76
2022/03/02 00:39:11;;;;;;;;;;;;;;;;;;1045667;28;4380;-74
2022/03/02 00:39:42;;;;;;;;;;;;;;;;;;1044147;28;3075;-74
2022/03/02 00:40:12;;;;;;;;;;;;;;;;;;1044962;28;4177;-74
2022/03/02 00:40:42;;;;;;;;;;;;;;;;;;1046237;28;1703;-74
2022/03/02 00:41:13;;;;;;;;;;;;;;;;;;1045724;28;4127;-75
2022/03/02 00:41:43;;;;;;;;;;;;;;;;;;1049915;28;2456;-74
2022/03/02 00:42:13;;;;;;;;;;;;;;;;;;1050297;28;4074;-75
2022/03/02 00:42:44;;;;;;;;;;;;;;;;;;1050726;28;2231;-75
2022/03/02 00:43:14;;;;;;;;;;;;;;;;;;1049314;28;4025;-75
2022/03/02 00:43:47;;;;;;;;;;;;;;;;;;1049347;28;2826;-75
2022/03/02 00:44:18;;;;;;;;;;;;;;;;;;1049539;28;3940;-74
2022/03/02 00:44:48;;;;;;;;;;;;;;;;;;1050525;28;2653;-75
2022/03/02 00:45:18;;;;;;;;;;;;;;;;;;1050094;28;3802;-75
2022/03/02 00:45:56;;;;;;;;;;;;;;;;;;1050449;28;2828;-75
2022/03/02 00:46:29;;;;;;;;;;;;;;;;;;1049568;28;3963;-74
2022/03/02 00:46:59;;;;;;;;;;;;;;;;;;1049870;28;2795;-75
2022/03/02 00:47:30;;;;;;;;;;;;;;;;;;1049944;28;3985;-74
2022/03/02 00:48:01;;;;;;;;;;;;;;;;;;1050106;28;2545;-74
2022/03/02 00:48:32;;;;;;;;;;;;;;;;;;1049906;28;4131;-75
2022/03/02 00:49:03;;;;;;;;;;;;;;;;;;1049799;28;2748;-73
2022/03/02 00:49:35;;;;;;;;;;;;;;;;;;1045345;28;3966;-75
2022/03/02 00:50:05;;;;;;;;;;;;;;;;;;1044901;28;3905;-74
2022/03/02 00:50:36;;;;;;;;;;;;;;;;;;1041482;28;2705;-73
2022/03/02 00:51:07;;;;;;;;;;;;;;;;;;1042324;28;3794;-75
2022/03/02 00:51:37;;;;;;;;;;;;;;;;;;1045788;28;2106;-75
2022/03/02 00:52:10;;;;;;;;;;;;;;;;;;1044029;28;3845;-75
2022/03/02 00:52:41;;;;;;;;;;;;;;;;;;1049938;28;2470;-75
2022/03/02 00:53:12;;;;;;;;;;;;;;;;;;1045552;28;3849;-75
2022/03/02 00:53:42;;;;;;;;;;;;;;;;;;1045880;28;2740;-75
2022/03/02 00:54:12;;;;;;;;;;;;;;;;;;1045117;28;3861;-75
2022/03/02 00:54:43;;;;;;;;;;;;;;;;;;1045266;28;2919;-75
2022/03/02 00:55:13;;;;;;;;;;;;;;;;;;1044152;28;3965;-75
2022/03/02 00:55:44;;;;;;;;;;;;;;;;;;1045121;28;2667;-74
2022/03/02 00:56:14;;;;;;;;;;;;;;;;;;1046219;28;3815;-74
2022/03/02 00:56:44;;;;;;;;;;;;;;;;;;1045130;28;2759;-75
2022/03/02 00:57:15;;;;;;;;;;;;;;;;;;1045773;28;3783;-74
2022/03/02 00:57:45;;;;;;;;;;;;;;;;;;1045532;28;2579;-75
2022/03/02 00:58:15;;;;;;;;;;;;;;;;;;1048828;28;3963;-73
2022/03/02 00:58:46;;;;;;;;;;;;;;;;;;1048618;28;3190;-75
2022/03/02 00:59:16;;;;;;;;;;;;;;;;;;1049769;28;4187;-74
2022/03/02 00:59:46;;;;;;;;;;;;;;;;;;1049973;28;2686;-75
2022/03/02 01:00:17;;;;;;;;;;;;;;;;;;1045257;28;3980;-75
2022/03/02 01:00:47;;;;;;;;;;;;;;;;;;1045169;28;2622;-75
2022/03/02 01:01:17;;;;;;;;;;;;;;;;;;1045232;28;3828;-75
2022/03/02 01:01:48;;;;;;;;;;;;;;;;;;1045815;28;2907;-75
2022/03/02 01:02:18;;;;;;;;;;;;;;;;;;1045973;28;3926;-74
2022/03/02 01:02:48;;;;;;;;;;;;;;;;;;1045773;28;2786;-74
2022/03/02 01:03:32;;;;;;;;;;;;;;;;;;1044597;28;3958;-74
2022/03/02 01:04:09;;;;;;;;;;;;;;;;;;1044210;28;4014;-73
2022/03/02 01:04:40;;;;;;;;;;;;;;;;;;1045321;28;2910;-74
2022/03/02 01:05:10;;;;;;;;;;;;;;;;;;1045245;28;4138;-74
2022/03/02 01:05:40;;;;;;;;;;;;;;;;;;1045502;28;2713;-74
2022/03/02 01:06:11;;;;;;;;;;;;;;;;;;1046264;28;3802;-75
2022/03/02 01:06:41;;;;;;;;;;;;;;;;;;1045887;28;3068;-75
2022/03/02 01:07:11;;;;;;;;;;;;;;;;;;1045178;28;3983;-74
2022/03/02 01:07:41;;;;;;;;;;;;;;;;;;1045500;28;2871;-74
2022/03/02 01:08:12;;;;;;;;;;;;;;;;;;1044013;28;4199;-74
2022/03/02 01:08:42;;;;;;;;;;;;;;;;;;1044424;28;2094;-74
2022/03/02 01:09:13;;;;;;;;;;;;;;;;;;1046440;28;4034;-75
2022/03/02 01:09:43;;;;;;;;;;;;;;;;;;1045375;28;2714;-74
2022/03/02 01:10:15;;;;;;;;;;;;;;;;;;1047474;28;3829;-74
2022/03/02 01:10:47;;;;;;;;;;;;;;;;;;1050101;28;2392;-73
2022/03/02 01:11:17;;;;;;;;;;;;;;;;;;1045651;28;3828;-74
2022/03/02 01:11:47;;;;;;;;;;;;;;;;;;1045423;28;3192;-74
2022/03/02 01:12:17;;;;;;;;;;;;;;;;;;1045044;28;3896;-75
2022/03/02 01:12:48;;;;;;;;;;;;;;;;;;1046467;28;2558;-74
2022/03/02 01:13:18;;;;;;;;;;;;;;;;;;1045161;28;3821;-75
2022/03/02 01:13:48;;;;;;;;;;;;;;;;;;1045699;28;2278;-75
2022/03/02 01:14:18;;;;;;;;;;;;;;;;;;1043394;28;4012;-75
2022/03/02 01:14:49;;;;;;;;;;;;;;;;;;1041793;28;2286;-74
2022/03/02 01:15:20;;;;;;;;;;;;;;;;;;1041012;28;3879;-74
2022/03/02 01:15:50;;;;;;;;;;;;;;;;;;1041697;28;2411;-75
2022/03/02 01:16:20;;;;;;;;;;;;;;;;;;1044677;28;3843;-75
2022/03/02 01:16:51;;;;;;;;;;;;;;;;;;1045343;28;3093;-75
2022/03/02 01:17:21;;;;;;;;;;;;;;;;;;1044922;28;4042;-75
2022/03/02 01:17:52;;;;;;;;;;;;;;;;;;1044851;28;2525;-74
2022/03/02 01:18:22;;;;;;;;;;;;;;;;;;1044645;28;3803;-74
2022/03/02 01:18:52;;;;;;;;;;;;;;;;;;1044421;28;2142;-75
2022/03/02 01:19:23;;;;;;;;;;;;;;;;;;1044567;28;3808;-73
2022/03/02 01:19:53;;;;;;;;;;;;;;;;;;1045910;28;3140;-75
2022/03/02 01:20:23;;;;;;;;;;;;;;;;;;1046100;28;3904;-74
2022/03/02 01:20:54;;;;;;;;;;;;;;;;;;1045833;28;2457;-74
2022/03/02 01:21:24;;;;;;;;;;;;;;;;;;1044900;28;4074;-75
2022/03/02 01:21:54;;;;;;;;;;;;;;;;;;1044350;28;2640;-74
2022/03/02 01:22:24;;;;;;;;;;;;;;;;;;1042589;28;4071;-74
2022/03/02 01:22:55;;;;;;;;;;;;;;;;;;1044025;28;2531;-74
2022/03/02 01:23:25;;;;;;;;;;;;;;;;;;1044362;28;3797;-75
2022/03/02 01:23:57;;;;;;;;;;;;;;;;;;1050142;28;3020;-75
2022/03/02 01:24:28;;;;;;;;;;;;;;;;;;1048876;28;3777;-74
2022/03/02 01:24:58;;;;;;;;;;;;;;;;;;1048525;28;2742;-75
2022/03/02 01:25:28;;;;;;;;;;;;;;;;;;1045143;28;3806;-74
2022/03/02 01:25:59;;;;;;;;;;;;;;;;;;1045387;28;3096;-74
2022/03/02 01:26:29;;;;;;;;;;;;;;;;;;1045941;28;4039;-72
2022/03/02 01:27:01;;;;;;;;;;;;;;;;;;1045832;28;2520;-74
2022/03/02 01:27:32;;;;;;;;;;;;;;;;;;1045486;28;3936;-74
2022/03/02 01:28:02;;;;;;;;;;;;;;;;;;1046246;28;2866;-74
2022/03/02 01:28:32;;;;;;;;;;;;;;;;;;1045958;28;4095;-75
2022/03/02 01:29:03;;;;;;;;;;;;;;;;;;1046805;28;2483;-74
2022/03/02 01:29:34;;;;;;;;;;;;;;;;;;1045700;28;4255;-75
2022/03/02 01:30:05;;;;;;;;;;;;;;;;;;1045361;28;2682;-75
2022/03/02 01:30:36;;;;;;;;;;;;;;;;;;1044654;28;3739;-75
2022/03/02 01:31:06;;;;;;;;;;;;;;;;;;1044578;28;3809;-74
2022/03/02 01:31:36;;;;;;;;;;;;;;;;;;1044640;28;2161;-74
2022/03/02 01:32:08;;;;;;;;;;;;;;;;;;1045724;28;3790;-75
2022/03/02 01:32:38;;;;;;;;;;;;;;;;;;1045850;28;3204;-75
2022/03/02 01:33:08;;;;;;;;;;;;;;;;;;1045580;28;3979;-73
2022/03/02 01:33:38;;;;;;;;;;;;;;;;;;1045426;28;2456;-74
2022/03/02 01:34:09;;;;;;;;;;;;;;;;;;1044383;28;3981;-74
2022/03/02 01:34:39;;;;;;;;;;;;;;;;;;1044926;28;2854;-75
2022/03/02 01:35:11;;;;;;;;;;;;;;;;;;1046424;28;3832;-73
2022/03/02 01:35:41;;;;;;;;;;;;;;;;;;1044504;28;2880;-74
2022/03/02 01:36:12;;;;;;;;;;;;;;;;;;1040537;28;3926;-75
2022/03/02 01:36:42;;;;;;;;;;;;;;;;;;1042261;28;2056;-75
2022/03/02 01:37:12;;;;;;;;;;;;;;;;;;1040925;28;4011;-73
2022/03/02 01:37:43;;;;;;;;;;;;;;;;;;1040639;28;2840;-75
2022/03/02 01:38:13;;;;;;;;;;;;;;;;;;1044131;28;4055;-74
2022/03/02 01:38:43;;;;;;;;;;;;;;;;;;1045665;28;2713;-75
2022/03/02 01:39:13;;;;;;;;;;;;;;;;;;1044932;28;3807;-76
2022/03/02 01:39:44;;;;;;;;;;;;;;;;;;1045794;28;2360;-74
2022/03/02 01:40:14;;;;;;;;;;;;;;;;;;1044423;28;3853;-74
2022/03/02 01:40:44;;;;;;;;;;;;;;;;;;1045329;28;2862;-75
2022/03/02 01:41:16;;;;;;;;;;;;;;;;;;1040872;28;3814;-74
2022/03/02 01:41:46;;;;;;;;;;;;;;;;;;1040985;28;2501;-75
2022/03/02 01:42:16;;;;;;;;;;;;;;;;;;1043328;28;3971;-74
2022/03/02 01:42:47;;;;;;;;;;;;;;;;;;1043576;28;2977;-74
2022/03/02 01:43:17;;;;;;;;;;;;;;;;;;1044532;28;4084;-74
2022/03/02 01:43:48;;;;;;;;;;;;;;;;;;1044756;28;3087;-75
2022/03/02 01:44:18;;;;;;;;;;;;;;;;;;1040054;28;4308;-74
2022/03/02 01:44:48;;;;;;;;;;;;;;;;;;1041528;28;2530;-75
2022/03/02 01:45:21;;;;;;;;;;;;;;;;;;1041506;28;4117;-74
2022/03/02 01:45:58;;;;;;;;;;;;;;;;;;1045912;28;2498;-74
2022/03/02 01:46:30;;;;;;;;;;;;;;;;;;1045062;28;3895;-75
2022/03/02 01:47:00;;;;;;;;;;;;;;;;;;1045908;28;2482;-74
2022/03/02 01:47:31;;;;;;;;;;;;;;;;;;1042840;28;3910;-75
2022/03/02 01:48:01;;;;;;;;;;;;;;;;;;1044261;28;2554;-74
2022/03/02 01:48:32;;;;;;;;;;;;;;;;;;1041214;28;3812;-75
2022/03/02 01:49:03;;;;;;;;;;;;;;;;;;1042526;28;1718;-75
2022/03/02 01:49:34;;;;;;;;;;;;;;;;;;1039813;28;3778;-75
2022/03/02 01:50:05;;;;;;;;;;;;;;;;;;1037498;28;2882;-75
2022/03/02 01:50:36;;;;;;;;;;;;;;;;;;1042604;28;3896;-74
2022/03/02 01:51:06;;;;;;;;;;;;;;;;;;1044254;28;3805;-75
2022/03/02 01:51:37;;;;;;;;;;;;;;;;;;1046992;28;2853;-74
2022/03/02 01:52:07;;;;;;;;;;;;;;;;;;1046069;28;3951;-75
2022/03/02 01:52:38;;;;;;;;;;;;;;;;;;1044997;28;3522;-75
2022/03/02 01:53:08;;;;;;;;;;;;;;;;;;1045476;28;3826;-75
2022/03/02 01:53:38;;;;;;;;;;;;;;;;;;1045569;28;2588;-75
2022/03/02 01:54:08;;;;;;;;;;;;;;;;;;1046191;28;3829;-74
2022/03/02 01:54:39;;;;;;;;;;;;;;;;;;1046089;28;2456;-75
2022/03/02 01:55:10;;;;;;;;;;;;;;;;;;1044689;28;3976;-76
2022/03/02 01:55:40;;;;;;;;;;;;;;;;;;1043562;28;4106;-75
2022/03/02 01:56:11;;;;;;;;;;;;;;;;;;1045454;28;4067;-75
2022/03/02 01:56:41;;;;;;;;;;;;;;;;;;1045406;28;2760;-75
2022/03/02 01:57:11;;;;;;;;;;;;;;;;;;1045362;28;3817;-75
2022/03/02 01:57:42;;;;;;;;;;;;;;;;;;1047799;28;2180;-74
2022/03/02 01:58:12;;;;;;;;;;;;;;;;;;1041687;28;4011;-74
2022/03/02 01:58:43;;;;;;;;;;;;;;;;;;1042828;28;2699;-75
2022/03/02 01:59:14;;;;;;;;;;;;;;;;;;1039142;28;3778;-74
2022/03/02 01:59:44;;;;;;;;;;;;;;;;;;1038093;28;2113;-74
2022/03/02 02:00:17;;;;;;;;;;;;;;;;;;1044153;28;3806;-75
2022/03/02 02:00:48;;;;;;;;;;;;;;;;;;1045655;28;2669;-75
2022/03/02 02:01:18;;;;;;;;;;;;;;;;;;1044883;28;3922;-74
2022/03/02 02:01:49;;;;;;;;;;;;;;;;;;1044849;28;2665;-75
2022/03/02 02:02:19;;;;;;;;;;;;;;;;;;1046572;28;3807;-74
2022/03/02 02:02:50;;;;;;;;;;;;;;;;;;1045488;28;2848;-74
2022/03/02 02:03:33;;;;;;;;;;;;;;;;;;1044630;28;3801;-74
2022/03/02 02:04:11;;;;;;;;;;;;;;;;;;1045135;28;3842;-74
2022/03/02 02:04:41;;;;;;;;;;;;;;;;;;1041987;28;2065;-75
2022/03/02 02:05:11;;;;;;;;;;;;;;;;;;1048244;28;4469;-74
2022/03/02 02:05:41;;;;;;;;;;;;;;;;;;1049654;28;2833;-75
2022/03/02 02:06:13;;;;;;;;;;;;;;;;;;1050472;28;3801;-75
2022/03/02 02:06:43;;;;;;;;;;;;;;;;;;1049583;28;2211;-74
2022/03/02 02:07:13;;;;;;;;;;;;;;;;;;1040572;28;3830;-74
2022/03/02 02:07:44;;;;;;;;;;;;;;;;;;1041477;28;2841;-75
2022/03/02 02:08:14;;;;;;;;;;;;;;;;;;1040899;28;3809;-75
2022/03/02 02:08:45;;;;;;;;;;;;;;;;;;1041236;28;2626;-75
2022/03/02 02:09:15;;;;;;;;;;;;;;;;;;1041407;28;3816;-73
2022/03/02 02:09:45;;;;;;;;;;;;;;;;;;1041636;28;2171;-75
2022/03/02 02:10:15;;;;;;;;;;;;;;;;;;1040506;28;4069;-75
2022/03/02 02:10:46;;;;;;;;;;;;;;;;;;1040365;28;2772;-75
2022/03/02 02:11:16;;;;;;;;;;;;;;;;;;1040975;28;3802;-75
2022/03/02 02:11:46;;;;;;;;;;;;;;;;;;1041530;28;2920;-75
2022/03/02 02:12:16;;;;;;;;;;;;;;;;;;1041159;28;3872;-74
2022/03/02 02:12:47;;;;;;;;;;;;;;;;;;1040950;28;2796;-74
2022/03/02 02:13:17;;;;;;;;;;;;;;;;;;1040870;28;4036;-76
2022/03/02 02:13:48;;;;;;;;;;;;;;;;;;1040709;28;2812;-74
2022/03/02 02:14:18;;;;;;;;;;;;;;;;;;1040190;28;3784;-74
2022/03/02 02:14:48;;;;;;;;;;;;;;;;;;1041178;28;2443;-74
2022/03/02 02:15:18;;;;;;;;;;;;;;;;;;1041158;28;4024;-74
2022/03/02 02:15:49;;;;;;;;;;;;;;;;;;1041728;28;2043;-75
2022/03/02 02:16:20;;;;;;;;;;;;;;;;;;1040949;28;3808;-75
2022/03/02 02:16:50;;;;;;;;;;;;;;;;;;1041486;28;2499;-75
2022/03/02 02:17:20;;;;;;;;;;;;;;;;;;1037926;28;3820;-75
2022/03/02 02:17:51;;;;;;;;;;;;;;;;;;1041352;28;2788;-74
2022/03/02 02:18:21;;;;;;;;;;;;;;;;;;1044974;28;3811;-74
2022/03/02 02:18:54;;;;;;;;;;;;;;;;;;1045377;28;2452;-75
2022/03/02 02:19:26;;;;;;;;;;;;;;;;;;1048152;28;3820;-74
2022/03/02 02:19:56;;;;;;;;;;;;;;;;;;1048836;28;2630;-75
2022/03/02 02:20:26;;;;;;;;;;;;;;;;;;1044385;28;4025;-74
2022/03/02 02:21:00;;;;;;;;;;;;;;;;;;1040871;28;2992;-74
2022/03/02 02:21:30;;;;;;;;;;;;;;;;;;1041753;28;3801;-75
2022/03/02 02:22:01;;;;;;;;;;;;;;;;;;1041240;28;2703;-75
2022/03/02 02:22:31;;;;;;;;;;;;;;;;;;1040455;28;3760;-75
2022/03/02 02:23:01;;;;;;;;;;;;;;;;;;1041311;28;2131;-74
2022/03/02 02:23:32;;;;;;;;;;;;;;;;;;1041606;28;3773;-75
2022/03/02 02:24:03;;;;;;;;;;;;;;;;;;1041908;28;2471;-75
2022/03/02 02:24:33;;;;;;;;;;;;;;;;;;1040795;28;3925;-74
2022/03/02 02:25:03;;;;;;;;;;;;;;;;;;1041838;28;2621;-74
2022/03/02 02:25:34;;;;;;;;;;;;;;;;;;1039905;28;3809;-74
2022/03/02 02:26:04;;;;;;;;;;;;;;;;;;1041076;28;3047;-75
2022/03/02 02:26:34;;;;;;;;;;;;;;;;;;1041892;28;3726;-74
2022/03/02 02:27:05;;;;;;;;;;;;;;;;;;1042511;28;2371;-75
2022/03/02 02:27:36;;;;;;;;;;;;;;;;;;1042059;28;3725;-74
2022/03/02 02:28:08;;;;;;;;;;;;;;;;;;1041011;28;4010;-75
2022/03/02 02:28:39;;;;;;;;;;;;;;;;;;1040736;28;2894;-75
2022/03/02 02:29:10;;;;;;;;;;;;;;;;;;1043070;28;4254;-74
2022/03/02 02:29:41;;;;;;;;;;;;;;;;;;1042032;28;2708;-73
2022/03/02 02:30:13;;;;;;;;;;;;;;;;;;1042292;28;3973;-73
2022/03/02 02:30:43;;;;;;;;;;;;;;;;;;1042350;28;2071;-75
2022/03/02 02:31:14;;;;;;;;;;;;;;;;;;1042238;28;3877;-74
2022/03/02 02:31:44;;;;;;;;;;;;;;;;;;1041084;28;2300;-75
2022/03/02 02:32:15;;;;;;;;;;;;;;;;;;1041738;28;3800;-74
2022/03/02 02:32:45;;;;;;;;;;;;;;;;;;1042601;28;2634;-74
2022/03/02 02:33:16;;;;;;;;;;;;;;;;;;1041945;28;4037;-74
2022/03/02 02:33:46;;;;;;;;;;;;;;;;;;1041797;28;2570;-74
2022/03/02 02:34:16;;;;;;;;;;;;;;;;;;1042688;28;3986;-74
2022/03/02 02:34:47;;;;;;;;;;;;;;;;;;1042553;28;2130;-75
2022/03/02 02:35:17;;;;;;;;;;;;;;;;;;1040250;28;4007;-75
2022/03/02 02:35:48;;;;;;;;;;;;;;;;;;1040946;28;2698;-75
2022/03/02 02:36:19;;;;;;;;;;;;;;;;;;1041597;28;4097;-74
2022/03/02 02:36:50;;;;;;;;;;;;;;;;;;1042676;28;2956;-74
2022/03/02 02:37:20;;;;;;;;;;;;;;;;;;1046042;28;3945;-74
2022/03/02 02:37:52;;;;;;;;;;;;;;;;;;1045330;28;2536;-75
2022/03/02 02:38:23;;;;;;;;;;;;;;;;;;1046049;28;3937;-75
2022/03/02 02:38:54;;;;;;;;;;;;;;;;;;1046303;28;2414;-75
2022/03/02 02:39:24;;;;;;;;;;;;;;;;;;1043018;28;3797;-74
2022/03/02 02:39:59;;;;;;;;;;;;;;;;;;1042670;28;2013;-75
2022/03/02 02:40:29;;;;;;;;;;;;;;;;;;1041490;28;3927;-75
2022/03/02 02:41:00;;;;;;;;;;;;;;;;;;1041827;28;2421;-75
2022/03/02 02:41:30;;;;;;;;;;;;;;;;;;1042256;28;3817;-75
2022/03/02 02:42:06;;;;;;;;;;;;;;;;;;1040771;28;3007;-75
2022/03/02 02:42:47;;;;;;;;;;;;;;;;;;1042199;28;3954;-75
2022/03/02 02:43:19;;;;;;;;;;;;;;;;;;1042188;28;3761;-74
2022/03/02 02:43:50;;;;;;;;;;;;;;;;;;1042471;28;2834;-75
2022/03/02 02:44:20;;;;;;;;;;;;;;;;;;1041757;28;3913;-74
2022/03/02 02:44:51;;;;;;;;;;;;;;;;;;1042742;28;2395;-75
2022/03/02 02:45:23;;;;;;;;;;;;;;;;;;1042522;28;3808;-75
2022/03/02 02:45:53;;;;;;;;;;;;;;;;;;1041812;28;2462;-74
2022/03/02 02:46:24;;;;;;;;;;;;;;;;;;1041501;28;3783;-75
2022/03/02 02:46:54;;;;;;;;;;;;;;;;;;1041730;28;2199;-75
2022/03/02 02:47:24;;;;;;;;;;;;;;;;;;1042418;28;3804;-75
2022/03/02 02:47:55;;;;;;;;;;;;;;;;;;1041838;28;2241;-75
2022/03/02 02:48:25;;;;;;;;;;;;;;;;;;1042448;28;3820;-74
2022/03/02 02:48:56;;;;;;;;;;;;;;;;;;1037226;28;2666;-75
2022/03/02 02:49:26;;;;;;;;;;;;;;;;;;1037585;28;3788;-75
2022/03/02 02:49:57;;;;;;;;;;;;;;;;;;1037983;28;2694;-75
2022/03/02 02:50:28;;;;;;;;;;;;;;;;;;1042772;28;3819;-75
2022/03/02 02:50:59;;;;;;;;;;;;;;;;;;1041223;28;2495;-74
2022/03/02 02:51:29;;;;;;;;;;;;;;;;;;1041757;28;3956;-75
2022/03/02 02:51:59;;;;;;;;;;;;;;;;;;1040984;28;2836;-75
2022/03/02 02:52:36;;;;;;;;;;;;;;;;;;1040682;28;3837;-75
2022/03/02 02:53:07;;;;;;;;;;;;;;;;;;1042400;28;3802;-75
2022/03/02 02:53:38;;;;;;;;;;;;;;;;;;1041564;28;2798;-75
2022/03/02 02:54:08;;;;;;;;;;;;;;;;;;1042690;28;4440;-74
2022/03/02 02:54:39;;;;;;;;;;;;;;;;;;1042804;28;2235;-75
2022/03/02 02:55:13;;;;;;;;;;;;;;;;;;1042323;28;3865;-75
2022/03/02 02:55:44;;;;;;;;;;;;;;;;;;1043912;28;3111;-74
2022/03/02 02:56:15;;;;;;;;;;;;;;;;;;1045410;28;4063;-75
2022/03/02 02:56:45;;;;;;;;;;;;;;;;;;1046019;28;2016;-74
2022/03/02 02:57:16;;;;;;;;;;;;;;;;;;1046311;28;3794;-75
2022/03/02 02:57:46;;;;;;;;;;;;;;;;;;1042491;28;2818;-75
2022/03/02 02:58:17;;;;;;;;;;;;;;;;;;1042660;28;3845;-75
2022/03/02 02:58:47;;;;;;;;;;;;;;;;;;1041461;28;2435;-75
2022/03/02 02:59:17;;;;;;;;;;;;;;;;;;1041362;28;3825;-74
2022/03/02 02:59:47;;;;;;;;;;;;;;;;;;1042595;28;2327;-75
2022/03/02 03:00:19;;;;;;;;;;;;;;;;;;1042244;28;4929;-75
2022/03/02 03:00:50;;;;;;;;;;;;;;;;;;1042794;28;2435;-75
2022/03/02 03:01:20;;;;;;;;;;;;;;;;;;1041281;28;4092;-75
2022/03/02 03:01:51;;;;;;;;;;;;;;;;;;1041854;28;2098;-74
2022/03/02 03:02:21;;;;;;;;;;;;;;;;;;1042503;28;3772;-75
2022/03/02 03:02:52;;;;;;;;;;;;;;;;;;1042277;28;2916;-75
2022/03/02 03:03:37;;;;;;;;;;;;;;;;;;1042204;28;3780;-75
2022/03/02 03:04:14;;;;;;;;;;;;;;;;;;1049799;28;3795;-74
2022/03/02 03:04:45;;;;;;;;;;;;;;;;;;1049662;28;2638;-75
2022/03/02 03:05:17;;;;;;;;;;;;;;;;;;1050766;28;3861;-75
2022/03/02 03:05:47;;;;;;;;;;;;;;;;;;1049680;28;2852;-75
2022/03/02 03:06:17;;;;;;;;;;;;;;;;;;1046047;28;3913;-75
2022/03/02 03:06:48;;;;;;;;;;;;;;;;;;1045592;28;2853;-75
2022/03/02 03:07:18;;;;;;;;;;;;;;;;;;1047034;28;3813;-75
2022/03/02 03:07:49;;;;;;;;;;;;;;;;;;1045823;28;2321;-75
2022/03/02 03:08:19;;;;;;;;;;;;;;;;;;1050789;28;3829;-75
2022/03/02 03:08:49;;;;;;;;;;;;;;;;;;1050767;28;2431;-74
2022/03/02 03:09:20;;;;;;;;;;;;;;;;;;1054940;28;3965;-75
2022/03/02 03:09:50;;;;;;;;;;;;;;;;;;1054586;28;2729;-75
2022/03/02 03:10:20;;;;;;;;;;;;;;;;;;1054285;28;3789;-75
2022/03/02 03:10:51;;;;;;;;;;;;;;;;;;1048503;28;2480;-75
2022/03/02 03:11:21;;;;;;;;;;;;;;;;;;1045321;28;3781;-75
2022/03/02 03:11:51;;;;;;;;;;;;;;;;;;1046811;28;2060;-75
2022/03/02 03:12:22;;;;;;;;;;;;;;;;;;1046474;28;3967;-74
2022/03/02 03:12:52;;;;;;;;;;;;;;;;;;1050448;28;2500;-75
2022/03/02 03:13:24;;;;;;;;;;;;;;;;;;1046066;28;3872;-75
2022/03/02 03:13:54;;;;;;;;;;;;;;;;;;1040535;28;2515;-74
2022/03/02 03:14:25;;;;;;;;;;;;;;;;;;1040092;28;3978;-75
2022/03/02 03:14:55;;;;;;;;;;;;;;;;;;1045462;28;2440;-74
2022/03/02 03:15:25;;;;;;;;;;;;;;;;;;1045425;28;3834;-74
2022/03/02 03:15:55;;;;;;;;;;;;;;;;;;1049692;28;2311;-75
2022/03/02 03:16:26;;;;;;;;;;;;;;;;;;1046948;28;3903;-75
2022/03/02 03:16:56;;;;;;;;;;;;;;;;;;1040508;28;2941;-74
2022/03/02 03:17:26;;;;;;;;;;;;;;;;;;1042251;28;3852;-74
2022/03/02 03:17:57;;;;;;;;;;;;;;;;;;1042272;28;2551;-75
2022/03/02 03:18:27;;;;;;;;;;;;;;;;;;1046534;28;4164;-75
2022/03/02 03:18:57;;;;;;;;;;;;;;;;;;1046133;28;3140;-75
2022/03/02 03:19:27;;;;;;;;;;;;;;;;;;1045110;28;3776;-74
2022/03/02 03:19:58;;;;;;;;;;;;;;;;;;1045470;28;2460;-74
2022/03/02 03:20:28;;;;;;;;;;;;;;;;;;1050470;28;3789;-74
2022/03/02 03:20:59;;;;;;;;;;;;;;;;;;1050587;28;2796;-75
2022/03/02 03:21:29;;;;;;;;;;;;;;;;;;1045846;28;3951;-75
2022/03/02 03:22:08;;;;;;;;;;;;;;;;;;1046401;28;2203;-75
2022/03/02 03:22:38;;;;;;;;;;;;;;;;;;1043481;28;3662;-75
2022/03/02 03:23:09;;;;;;;;;;;;;;;;;;1047647;28;3802;-74
2022/03/02 03:23:39;;;;;;;;;;;;;;;;;;1051024;28;2268;-74
2022/03/02 03:24:09;;;;;;;;;;;;;;;;;;1046554;28;3841;-75
2022/03/02 03:24:40;;;;;;;;;;;;;;;;;;1043693;28;2496;-74
2022/03/02 03:25:11;;;;;;;;;;;;;;;;;;1043452;28;4088;-75
2022/03/02 03:25:41;;;;;;;;;;;;;;;;;;1041837;28;2554;-74
2022/03/02 03:26:11;;;;;;;;;;;;;;;;;;1044021;28;3977;-75
2022/03/02 03:26:42;;;;;;;;;;;;;;;;;;1050493;28;3607;-74
2022/03/02 03:27:12;;;;;;;;;;;;;;;;;;1049964;28;3799;-75
2022/03/02 03:27:42;;;;;;;;;;;;;;;;;;1050941;28;2454;-75
2022/03/02 03:28:13;;;;;;;;;;;;;;;;;;1049881;28;3845;-75
2022/03/02 03:28:43;;;;;;;;;;;;;;;;;;1050385;28;2942;-75
2022/03/02 03:29:13;;;;;;;;;;;;;;;;;;1050544;28;4029;-75
2022/03/02 03:29:43;;;;;;;;;;;;;;;;;;1049808;28;2463;-73
2022/03/02 03:30:14;;;;;;;;;;;;;;;;;;1049414;28;3801;-74
2022/03/02 03:30:45;;;;;;;;;;;;;;;;;;1049292;28;3530;-75
2022/03/02 03:31:15;;;;;;;;;;;;;;;;;;1050092;28;3835;-74
2022/03/02 03:31:45;;;;;;;;;;;;;;;;;;1041558;28;2741;-74
2022/03/02 03:32:16;;;;;;;;;;;;;;;;;;1041312;28;3969;-75
2022/03/02 03:32:46;;;;;;;;;;;;;;;;;;1041412;28;2236;-74
2022/03/02 03:33:17;;;;;;;;;;;;;;;;;;1042101;28;4420;-74
2022/03/02 03:33:47;;;;;;;;;;;;;;;;;;1050493;28;1738;-75
2022/03/02 03:34:18;;;;;;;;;;;;;;;;;;1050760;28;3979;-74
2022/03/02 03:34:48;;;;;;;;;;;;;;;;;;1045023;28;2680;-75